Time;durP1;ratioP1;P1;durP2;ratioP2;P2;SDS_P1;SDS_P2;PMS_P1;PMS_P2;Temp;Humidity;BMP_temperature;BMP_pressure;BME280_temperature;BME280_humidity;BME280_pressure;Samples;Min_cycle;Max_cycle;Signal;HPM_P1;HPM_P2
2023/03/20 00:01:18;;;;;;;22.75;12.77;;;8.00;99.90;;;;;;4974526;28;20046;-80
2023/03/20 00:03:51;;;;;;;19.90;12.75;;;8.00;99.90;;;;;;4961771;28;20131;-80
2023/03/20 00:06:37;;;;;;;19.42;11.80;;;8.00;99.90;;;;;;4963361;28;20501;-80
2023/03/20 00:09:07;;;;;;;15.88;11.32;;;8.00;99.90;;;;;;4945710;28;20117;-80
2023/03/20 00:11:59;;;;;;;18.88;11.65;;;8.00;99.90;;;;;;4958845;28;20047;-80
2023/03/20 00:14:49;;;;;;;17.15;10.55;;;8.00;99.90;;;;;;4960309;28;20499;-80
2023/03/20 00:17:24;;;;;;;15.32;9.07;;;7.90;99.90;;;;;;4976495;28;20038;-80
2023/03/20 00:20:17;;;;;;;15.43;9.43;;;7.90;99.90;;;;;;4941026;28;20069;-80
2023/03/20 00:22:51;;;;;;;14.83;9.37;;;7.90;99.90;;;;;;4970662;28;20050;-80
2023/03/20 00:25:25;;;;;;;16.42;9.00;;;7.90;99.90;;;;;;4977539;28;20490;-80
2023/03/20 00:28:08;;;;;;;11.95;8.45;;;7.80;99.90;;;;;;4943333;28;20520;-80
2023/03/20 00:31:37;;;;;;;17.25;8.88;;;7.80;99.90;;;;;;4970607;28;20378;-80
2023/03/20 00:34:19;;;;;;;15.63;9.23;;;7.80;99.90;;;;;;4976827;28;20043;-80
2023/03/20 00:37:11;;;;;;;13.15;9.20;;;7.70;99.90;;;;;;4937855;28;20472;-80
2023/03/20 00:40:43;;;;;;;16.30;9.30;;;7.80;99.90;;;;;;4973650;28;20417;-80
2023/03/20 00:43:37;;;;;;;18.73;9.85;;;7.80;99.90;;;;;;4966338;28;20053;-81
2023/03/20 00:46:16;;;;;;;15.05;9.55;;;7.70;99.90;;;;;;4954805;29;20062;-80
2023/03/20 00:49:10;;;;;;;;;;;7.70;99.90;;;;;;4955752;29;20573;-80
2023/03/20 00:52:16;;;;;;;13.73;8.20;;;7.70;99.90;;;;;;4956352;28;19925;-81
2023/03/20 00:55:13;;;;;;;;;;;7.70;99.90;;;;;;4973503;28;20113;-81
2023/03/20 00:58:13;;;;;;;12.35;7.93;;;7.70;99.90;;;;;;4975106;28;19918;-80
2023/03/20 01:01:19;;;;;;;13.80;8.40;;;7.70;99.90;;;;;;4972412;28;20528;-80
2023/03/20 01:04:00;;;;;;;15.75;9.38;;;7.60;99.90;;;;;;4957711;28;20063;-80
2023/03/20 01:06:37;;;;;;;15.50;9.55;;;7.60;99.90;;;;;;4956001;28;20049;-80
2023/03/20 01:09:22;;;;;;;16.33;10.18;;;7.70;99.90;;;;;;4957918;28;20452;-80
2023/03/20 01:12:25;;;;;;;15.65;9.95;;;7.60;99.90;;;;;;4946254;28;20130;-80
2023/03/20 01:15:03;;;;;;;15.50;11.15;;;7.60;99.90;;;;;;4930334;28;20230;-80
2023/03/20 01:17:47;;;;;;;19.65;11.82;;;7.70;99.90;;;;;;4954430;28;20042;-80
2023/03/20 01:20:38;;;;;;;17.42;11.57;;;7.60;99.90;;;;;;4945915;28;20058;-81
2023/03/20 01:23:38;;;;;;;18.20;11.75;;;7.60;99.90;;;;;;4923425;29;20083;-81
2023/03/20 01:27:16;;;;;;;15.65;11.40;;;7.60;99.90;;;;;;4938593;28;20051;-80
2023/03/20 01:30:36;;;;;;;20.45;12.48;;;7.60;99.90;;;;;;4974177;28;20497;-79
2023/03/20 01:33:30;;;;;;;20.42;13.25;;;7.60;99.90;;;;;;4973847;28;20035;-79
2023/03/20 01:36:15;;;;;;;18.80;13.15;;;7.70;99.90;;;;;;4961126;28;20193;-79
2023/03/20 01:39:49;;;;;;;21.15;12.75;;;7.60;99.90;;;;;;4966354;28;20104;-79
2023/03/20 01:46:35;;;;;;;20.80;13.55;;;7.70;99.90;;;;;;4975190;28;20086;-79
2023/03/20 01:49:10;;;;;;;23.35;13.73;;;7.60;99.90;;;;;;4944857;28;20051;-79
2023/03/20 01:52:02;;;;;;;25.40;14.32;;;7.60;99.90;;;;;;4958358;28;20031;-79
2023/03/20 01:55:01;;;;;;;24.02;15.23;;;7.60;99.90;;;;;;4959702;28;20050;-79
2023/03/20 01:57:43;;;;;;;23.13;16.05;;;7.60;99.90;;;;;;4974915;28;20117;-79
2023/03/20 02:00:38;;;;;;;24.23;15.43;;;7.60;99.90;;;;;;4959109;28;20497;-79
2023/03/20 02:03:10;;;;;;;25.20;16.65;;;7.50;99.90;;;;;;4951193;29;20043;-79
2023/03/20 02:06:07;;;;;;;22.25;16.10;;;7.60;99.90;;;;;;4942392;29;20126;-79
2023/03/20 02:08:52;;;;;;;25.90;16.60;;;7.60;99.90;;;;;;4970505;28;20047;-79
2023/03/20 02:11:40;;;;;;;23.95;17.27;;;7.60;99.90;;;;;;4972085;28;20278;-79
2023/03/20 02:14:20;;;;;;;29.27;17.42;;;7.60;99.90;;;;;;4945887;28;20396;-79
2023/03/20 02:16:54;;;;;;;28.00;18.58;;;7.60;99.90;;;;;;4960910;28;20147;-79
2023/03/20 02:20:36;;;;;;;29.13;18.88;;;7.60;99.90;;;;;;4949912;28;20088;-79
2023/03/20 02:23:36;;;;;;;30.42;19.05;;;7.70;99.90;;;;;;4964724;28;20058;-79
2023/03/20 02:27:02;;;;;;;29.42;19.02;;;7.60;99.90;;;;;;4974813;28;20062;-79
2023/03/20 02:34:18;;;;;;;;;;;;;;;;;;;;;
2023/03/20 02:37:38;;;;;;;25.55;16.45;;;7.60;99.90;;;;;;4955041;29;20055;-79
2023/03/20 02:40:37;;;;;;;28.92;17.00;;;7.60;99.90;;;;;;4963913;28;20104;-79
2023/03/20 02:43:32;;;;;;;23.05;15.57;;;7.70;99.90;;;;;;4970156;28;20409;-79
2023/03/20 02:46:22;;;;;;;22.15;15.05;;;7.70;99.90;;;;;;4972664;28;20057;-79
2023/03/20 02:49:20;;;;;;;19.70;14.63;;;7.70;99.90;;;;;;4961732;28;20043;-80
2023/03/20 02:52:07;;;;;;;21.63;13.60;;;7.70;99.90;;;;;;4925711;28;20453;-79
2023/03/20 02:55:59;;;;;;;17.42;12.18;;;7.70;99.90;;;;;;4977035;28;20043;-79
2023/03/20 02:59:45;;;;;;;19.38;12.45;;;7.70;99.90;;;;;;4976968;28;20538;-80
2023/03/20 03:03:52;;;;;;;18.67;11.98;;;7.70;99.90;;;;;;4974209;28;20042;-79
2023/03/20 03:06:31;;;;;;;15.00;10.00;;;7.70;99.90;;;;;;4942739;28;20486;-79
2023/03/20 03:09:50;;;;;;;14.18;10.80;;;7.70;99.90;;;;;;4971484;28;20046;-79
2023/03/20 03:12:48;;;;;;;14.75;9.73;;;7.70;99.90;;;;;;4955558;28;20050;-79
2023/03/20 03:16:20;;;;;;;14.57;9.77;;;7.70;99.90;;;;;;4960802;28;20390;-79
2023/03/20 03:19:26;;;;;;;15.35;9.68;;;7.70;99.90;;;;;;4952331;28;20094;-78
2023/03/20 03:22:41;;;;;;;14.75;9.63;;;7.70;99.90;;;;;;4951141;28;20069;-79
2023/03/20 03:25:49;;;;;;;15.15;9.98;;;7.70;99.90;;;;;;4974271;28;20194;-79
2023/03/20 03:29:11;;;;;;;11.10;8.68;;;7.70;99.90;;;;;;4956881;28;20038;-79
2023/03/20 03:32:07;;;;;;;12.15;8.10;;;7.70;99.90;;;;;;4969157;28;20903;-79
2023/03/20 03:35:35;;;;;;;13.90;8.70;;;7.70;99.90;;;;;;4963266;28;20038;-79
2023/03/20 03:38:44;;;;;;;13.93;8.75;;;7.70;99.90;;;;;;4973867;28;20325;-79
2023/03/20 03:42:15;;;;;;;15.70;8.70;;;7.70;99.90;;;;;;4961395;28;20458;-79
2023/03/20 03:45:53;;;;;;;14.60;8.98;;;7.60;99.90;;;;;;4970484;28;20138;-79
2023/03/20 03:49:11;;;;;;;15.05;9.15;;;7.60;99.90;;;;;;4958731;29;20035;-79
2023/03/20 03:52:04;;;;;;;13.70;9.10;;;7.60;99.90;;;;;;4941572;28;20647;-79
2023/03/20 03:55:08;;;;;;;12.57;9.23;;;7.60;99.90;;;;;;4963389;28;20046;-79
2023/03/20 03:58:20;;;;;;;12.75;8.35;;;7.60;99.90;;;;;;4968540;28;20050;-79
2023/03/20 04:01:34;;;;;;;13.05;8.82;;;7.60;99.90;;;;;;4985449;28;20039;-79
2023/03/20 04:04:47;;;;;;;14.73;9.00;;;7.60;99.90;;;;;;4974397;28;20074;-79
2023/03/20 04:07:48;;;;;;;13.95;9.93;;;7.50;99.90;;;;;;4972408;28;20050;-79
2023/03/20 04:10:26;;;;;;;13.80;9.85;;;7.40;99.90;;;;;;4943050;29;20174;-79
2023/03/20 04:13:07;;;;;;;16.05;10.73;;;7.40;99.90;;;;;;4944359;28;20105;-79
2023/03/20 04:16:07;;;;;;;16.27;10.05;;;7.40;99.90;;;;;;4928024;28;20145;-79
2023/03/20 04:18:42;;;;;;;15.40;10.00;;;7.30;99.90;;;;;;4970578;28;20047;-79
2023/03/20 04:21:32;;;;;;;14.32;10.45;;;7.30;99.90;;;;;;4973097;28;20053;-79
2023/03/20 04:24:17;;;;;;;14.75;11.40;;;7.20;99.90;;;;;;4961028;28;20251;-79
2023/03/20 04:26:55;;;;;;;14.77;10.60;;;7.30;99.90;;;;;;4957425;28;20038;-79
2023/03/20 04:29:44;;;;;;;17.65;11.85;;;7.30;99.90;;;;;;4973869;28;20046;-79
2023/03/20 04:32:43;;;;;;;20.48;13.00;;;7.30;99.90;;;;;;4969891;28;20043;-79
2023/03/20 04:35:33;;;;;;;18.60;12.75;;;7.30;99.90;;;;;;4952377;28;20043;-79
2023/03/20 04:38:38;;;;;;;15.05;12.27;;;7.30;99.90;;;;;;4953619;29;20048;-79
2023/03/20 04:41:29;;;;;;;17.63;13.18;;;7.30;99.90;;;;;;4948618;28;20046;-79
2023/03/20 04:44:33;;;;;;;17.75;13.15;;;7.30;99.90;;;;;;4943496;28;20061;-79
2023/03/20 04:47:29;;;;;;;17.20;13.07;;;7.30;99.90;;;;;;4960997;28;20039;-79
2023/03/20 04:50:13;;;;;;;15.07;12.35;;;7.30;99.90;;;;;;4973640;28;20047;-79
2023/03/20 04:53:02;;;;;;;17.38;13.55;;;7.20;99.90;;;;;;4951905;28;20051;-79
2023/03/20 04:55:39;;;;;;;17.75;13.68;;;7.20;99.90;;;;;;4953564;28;20123;-79
2023/03/20 04:58:39;;;;;;;17.80;13.32;;;7.20;99.90;;;;;;4974951;28;20102;-79
2023/03/20 05:01:29;;;;;;;15.23;12.77;;;7.20;99.90;;;;;;4956798;28;20148;-79
2023/03/20 05:04:14;;;;;;;15.70;12.98;;;7.20;99.90;;;;;;4968707;28;20076;-79
2023/03/20 05:06:53;;;;;;;18.05;13.98;;;7.20;99.90;;;;;;4978058;28;20042;-79
2023/03/20 05:09:44;;;;;;;18.27;14.38;;;7.20;99.90;;;;;;4978282;28;20055;-79
2023/03/20 05:12:57;;;;;;;20.13;15.02;;;7.20;99.90;;;;;;4974631;28;20046;-79
2023/03/20 05:15:46;;;;;;;21.65;14.60;;;7.20;99.90;;;;;;4958173;28;20138;-79
2023/03/20 05:18:45;;;;;;;21.05;14.93;;;7.20;99.90;;;;;;4939713;29;20490;-79
2023/03/20 05:21:17;;;;;;;20.63;14.52;;;7.20;99.90;;;;;;4941023;29;20047;-79
2023/03/20 05:24:10;;;;;;;19.52;14.63;;;7.20;99.90;;;;;;4956623;28;20063;-79
2023/03/20 05:26:36;;;;;;;20.52;14.95;;;7.20;99.90;;;;;;5025281;23;20150;-74
2023/03/20 05:29:01;;;;;;;18.98;14.75;;;7.20;99.90;;;;;;4994230;28;20050;-74
2023/03/20 05:31:27;;;;;;;20.40;14.77;;;7.20;99.90;;;;;;4992956;28;20073;-74
2023/03/20 05:33:52;;;;;;;19.02;13.65;;;7.20;99.90;;;;;;4993247;28;20508;-74
2023/03/20 05:36:18;;;;;;;19.20;14.95;;;7.20;99.90;;;;;;4990535;28;20035;-75
2023/03/20 05:38:44;;;;;;;16.65;13.57;;;7.20;99.90;;;;;;4974612;28;20525;-74
2023/03/20 05:41:10;;;;;;;18.48;13.10;;;7.20;99.90;;;;;;4990164;28;20476;-74
2023/03/20 05:43:35;;;;;;;18.42;14.35;;;7.20;99.90;;;;;;4990444;28;20049;-74
2023/03/20 05:46:01;;;;;;;17.00;13.55;;;7.20;99.90;;;;;;4990478;28;20066;-74
2023/03/20 05:48:26;;;;;;;17.38;13.77;;;7.20;99.90;;;;;;4990378;28;20073;-74
2023/03/20 05:50:52;;;;;;;16.85;12.40;;;7.20;99.90;;;;;;4981604;28;20038;-74
2023/03/20 05:53:17;;;;;;;18.15;12.68;;;7.20;99.90;;;;;;4963900;28;20042;-74
2023/03/20 05:55:43;;;;;;;18.10;12.65;;;7.20;99.90;;;;;;4992453;28;20069;-74
2023/03/20 05:58:10;;;;;;;20.10;13.05;;;7.20;99.90;;;;;;4993831;28;20042;-74
2023/03/20 06:00:36;;;;;;;18.95;12.85;;;7.20;99.90;;;;;;4987200;28;20054;-74
2023/03/20 06:03:02;;;;;;;17.55;11.98;;;7.20;99.90;;;;;;4967830;28;20061;-74
2023/03/20 06:05:28;;;;;;;18.27;12.82;;;7.20;99.90;;;;;;4987879;28;20497;-74
2023/03/20 06:07:53;;;;;;;15.57;12.45;;;7.20;99.90;;;;;;4992690;28;20069;-74
2023/03/20 06:10:19;;;;;;;16.83;12.90;;;7.30;99.90;;;;;;4986063;28;20039;-74
2023/03/20 06:12:45;;;;;;;17.55;11.90;;;7.30;99.90;;;;;;4983904;28;20383;-72
2023/03/20 06:15:11;;;;;;;15.43;10.95;;;7.30;99.90;;;;;;4990133;28;20042;-73
2023/03/20 06:17:37;;;;;;;18.48;12.43;;;7.30;99.90;;;;;;4975554;28;20393;-73
2023/03/20 06:20:03;;;;;;;18.58;12.77;;;7.30;99.90;;;;;;4989484;28;20077;-73
2023/03/20 06:22:29;;;;;;;15.30;11.48;;;7.40;99.90;;;;;;4987440;28;20294;-74
2023/03/20 06:24:56;;;;;;;20.20;13.23;;;7.40;99.90;;;;;;4993027;28;20505;-74
2023/03/20 06:27:21;;;;;;;16.95;12.82;;;7.40;99.90;;;;;;4977140;28;20035;-74
2023/03/20 06:29:47;;;;;;;17.30;12.73;;;7.50;99.90;;;;;;4982878;28;20035;-73
2023/03/20 06:32:13;;;;;;;19.48;13.70;;;7.50;99.90;;;;;;4986063;28;20073;-73
2023/03/20 06:34:40;;;;;;;20.05;14.43;;;7.50;99.90;;;;;;4984431;28;20117;-73
2023/03/20 06:37:05;;;;;;;16.58;12.02;;;7.50;99.90;;;;;;4977035;28;20046;-73
2023/03/20 06:39:31;;;;;;;18.60;13.48;;;7.50;99.90;;;;;;4976189;28;20046;-73
2023/03/20 06:41:56;;;;;;;19.08;14.00;;;7.60;99.90;;;;;;4990868;28;20420;-73
2023/03/20 06:44:22;;;;;;;17.67;12.80;;;7.50;99.90;;;;;;4987952;28;20050;-73
2023/03/20 06:46:48;;;;;;;17.23;13.10;;;7.50;99.90;;;;;;4970398;28;20489;-73
2023/03/20 06:49:13;;;;;;;18.15;12.50;;;7.60;99.90;;;;;;4987307;28;20039;-73
2023/03/20 06:51:39;;;;;;;20.05;13.95;;;7.50;99.90;;;;;;4976446;28;20042;-73
2023/03/20 06:54:05;;;;;;;16.17;12.52;;;7.60;99.90;;;;;;4987315;28;20047;-73
2023/03/20 06:56:31;;;;;;;18.95;13.73;;;7.60;99.90;;;;;;5005810;28;20057;-73
2023/03/20 06:58:57;;;;;;;19.80;13.52;;;7.60;99.90;;;;;;4992934;28;20038;-73
2023/03/20 07:01:23;;;;;;;18.73;12.18;;;7.60;99.90;;;;;;4974523;28;20101;-73
2023/03/20 07:03:49;;;;;;;19.95;12.43;;;7.60;99.90;;;;;;4983851;28;20054;-73
2023/03/20 07:06:15;;;;;;;19.45;12.30;;;7.70;99.90;;;;;;4983111;28;20034;-73
2023/03/20 07:08:40;;;;;;;19.30;12.25;;;7.70;99.90;;;;;;4975476;28;20042;-72
2023/03/20 07:11:06;;;;;;;16.63;12.48;;;7.80;99.90;;;;;;4968202;28;20035;-73
2023/03/20 07:13:32;;;;;;;18.75;12.38;;;7.80;99.90;;;;;;4974591;28;20214;-73
2023/03/20 07:16:00;;;;;;;17.98;12.07;;;7.80;99.90;;;;;;4988560;28;20097;-73
2023/03/20 07:18:26;;;;;;;15.05;11.27;;;7.80;99.90;;;;;;4984436;28;20480;-73
2023/03/20 07:20:52;;;;;;;15.70;11.77;;;7.80;99.90;;;;;;4990449;28;20081;-73
2023/03/20 07:23:18;;;;;;;17.67;12.48;;;7.80;99.90;;;;;;4992107;28;20039;-73
2023/03/20 07:25:45;;;;;;;15.55;12.10;;;7.90;99.90;;;;;;4973481;28;20120;-73
2023/03/20 07:28:11;;;;;;;15.82;12.23;;;7.90;99.90;;;;;;4988318;28;20050;-73
2023/03/20 07:30:37;;;;;;;19.55;13.80;;;7.90;99.90;;;;;;4988783;28;20034;-73
2023/03/20 07:33:02;;;;;;;16.42;12.40;;;8.00;99.90;;;;;;4988088;28;20045;-73
2023/03/20 07:35:28;;;;;;;17.35;13.02;;;8.10;99.90;;;;;;4981718;28;20086;-73
2023/03/20 07:37:53;;;;;;;18.80;13.27;;;8.10;99.90;;;;;;4988812;28;20082;-73
2023/03/20 07:40:19;;;;;;;19.60;12.65;;;8.10;99.90;;;;;;4973690;28;20039;-73
2023/03/20 07:42:46;;;;;;;21.27;13.38;;;8.20;99.90;;;;;;4972297;28;20155;-73
2023/03/20 07:45:12;;;;;;;18.00;12.13;;;8.20;99.90;;;;;;4985889;28;20038;-72
2023/03/20 07:47:38;;;;;;;17.23;13.48;;;8.30;99.90;;;;;;4991702;28;20377;-73
2023/03/20 07:50:04;;;;;;;17.40;12.35;;;8.40;99.90;;;;;;4991785;28;20160;-73
2023/03/20 07:52:30;;;;;;;16.17;12.43;;;8.40;99.90;;;;;;4975542;28;20400;-73
2023/03/20 07:54:55;;;;;;;16.67;12.82;;;8.50;99.90;;;;;;4990540;28;20053;-73
2023/03/20 07:57:21;;;;;;;17.38;13.35;;;8.50;99.90;;;;;;4984876;28;20057;-73
2023/03/20 07:59:47;;;;;;;19.83;13.15;;;8.50;99.90;;;;;;4991498;28;20053;-73
2023/03/20 08:02:16;;;;;;;16.75;12.93;;;8.60;99.90;;;;;;4991323;28;20436;-73
2023/03/20 08:04:43;;;;;;;16.38;12.77;;;8.70;99.90;;;;;;4987020;28;20049;-73
2023/03/20 08:07:09;;;;;;;17.55;13.20;;;8.70;99.90;;;;;;4991616;28;20034;-73
2023/03/20 08:09:34;;;;;;;18.05;13.57;;;8.70;99.90;;;;;;4987249;28;20476;-73
2023/03/20 08:12:00;;;;;;;17.63;12.88;;;8.80;99.90;;;;;;4991079;28;20073;-73
2023/03/20 08:14:26;;;;;;;15.43;12.85;;;8.80;99.90;;;;;;4987137;28;20106;-73
2023/03/20 08:16:51;;;;;;;17.10;12.60;;;8.90;99.90;;;;;;5006939;28;20045;-73
2023/03/20 08:19:17;;;;;;;18.83;13.00;;;8.90;99.90;;;;;;4983565;28;20047;-73
2023/03/20 08:21:42;;;;;;;16.17;12.80;;;9.00;99.90;;;;;;4989492;28;20050;-73
2023/03/20 08:24:08;;;;;;;18.48;13.93;;;9.10;99.90;;;;;;4991475;28;20046;-73
2023/03/20 08:26:34;;;;;;;17.38;13.15;;;9.20;99.90;;;;;;4991073;28;20047;-73
2023/03/20 08:29:00;;;;;;;17.38;12.55;;;9.20;99.90;;;;;;4984278;28;20035;-73
2023/03/20 08:31:25;;;;;;;16.42;12.75;;;9.20;99.90;;;;;;4986615;28;20401;-73
2023/03/20 08:33:51;;;;;;;17.17;12.98;;;9.30;99.90;;;;;;4991160;28;20061;-73
2023/03/20 08:36:24;;;;;;;16.65;12.52;;;9.30;99.90;;;;;;4991477;28;20473;-73
2023/03/20 08:38:49;;;;;;;15.25;11.57;;;9.40;99.90;;;;;;4988231;28;20126;-72
2023/03/20 08:41:16;;;;;;;16.10;11.80;;;9.50;99.90;;;;;;4990363;28;20121;-73
2023/03/20 08:43:42;;;;;;;14.48;12.25;;;9.40;99.90;;;;;;4991062;28;20053;-73
2023/03/20 08:46:08;;;;;;;15.80;12.07;;;9.50;99.90;;;;;;4990944;28;20038;-73
2023/03/20 08:48:34;;;;;;;15.80;11.93;;;9.60;99.90;;;;;;4987078;28;20046;-73
2023/03/20 08:51:00;;;;;;;16.13;10.95;;;9.70;99.90;;;;;;4987492;28;20114;-73
2023/03/20 08:53:26;;;;;;;14.70;12.30;;;9.90;99.90;;;;;;4978693;28;20556;-73
2023/03/20 08:55:52;;;;;;;15.40;11.30;;;10.00;99.90;;;;;;4990875;28;20038;-73
2023/03/20 08:58:19;;;;;;;15.93;12.00;;;10.10;99.90;;;;;;4991118;28;20065;-73
2023/03/20 09:00:45;;;;;;;16.33;11.60;;;10.10;99.90;;;;;;4990764;28;20062;-73
2023/03/20 09:03:13;;;;;;;16.65;11.38;;;10.10;99.90;;;;;;4988926;28;20039;-73
2023/03/20 09:05:40;;;;;;;15.13;10.95;;;10.20;99.90;;;;;;4992022;28;20053;-73
2023/03/20 09:08:05;;;;;;;14.15;10.48;;;10.30;99.90;;;;;;4990880;28;20050;-73
2023/03/20 09:10:31;;;;;;;14.07;10.20;;;10.40;99.90;;;;;;4990655;28;20407;-73
2023/03/20 09:12:57;;;;;;;14.95;10.35;;;10.50;99.90;;;;;;4989432;28;20112;-73
2023/03/20 09:15:22;;;;;;;14.45;10.32;;;10.70;99.90;;;;;;4974398;28;20054;-73
2023/03/20 09:17:48;;;;;;;13.32;10.30;;;10.90;99.90;;;;;;4990780;28;20042;-73
2023/03/20 09:20:13;;;;;;;17.08;10.20;;;11.20;99.90;;;;;;4990910;28;20042;-73
2023/03/20 09:22:41;;;;;;;13.40;9.43;;;11.50;99.90;;;;;;4989618;28;20046;-73
2023/03/20 09:25:07;;;;;;;13.40;8.93;;;11.60;99.90;;;;;;4991529;28;20049;-73
2023/03/20 09:27:33;;;;;;;11.68;9.35;;;11.70;99.90;;;;;;4974486;28;20038;-73
2023/03/20 09:29:58;;;;;;;14.15;8.70;;;11.60;99.90;;;;;;4974565;28;20049;-73
2023/03/20 09:32:24;;;;;;;9.93;8.80;;;11.60;99.90;;;;;;4990171;28;20052;-73
2023/03/20 09:34:49;;;;;;;15.57;9.82;;;11.70;99.90;;;;;;4973753;28;20121;-73
2023/03/20 09:37:15;;;;;;;11.80;8.35;;;11.80;99.90;;;;;;4990619;28;20046;-73
2023/03/20 09:39:40;;;;;;;12.50;8.68;;;11.80;99.90;;;;;;4990541;28;20038;-73
2023/03/20 09:42:42;;;;;;;14.32;9.27;;;11.70;99.90;;;;;;4990589;28;20038;-73
2023/03/20 09:45:19;;;;;;;11.45;8.70;;;11.60;99.90;;;;;;4981957;28;20090;-73
2023/03/20 09:47:55;;;;;;;12.48;8.00;;;11.60;99.90;;;;;;4993883;28;20117;-73
2023/03/20 09:50:33;;;;;;;12.95;8.50;;;11.50;99.90;;;;;;4995323;28;20074;-73
2023/03/20 09:53:07;;;;;;;12.75;8.23;;;11.40;99.90;;;;;;4990315;28;20034;-73
2023/03/20 09:55:39;;;;;;;13.23;8.63;;;11.30;99.90;;;;;;4987696;28;20053;-73
2023/03/20 09:58:15;;;;;;;14.65;8.90;;;11.00;99.90;;;;;;4990657;28;20038;-73
2023/03/20 10:00:45;;;;;;;13.35;8.77;;;10.90;99.90;;;;;;4990555;28;20059;-73
2023/03/20 10:03:18;;;;;;;14.88;8.90;;;10.80;99.90;;;;;;4990338;28;20089;-73
2023/03/20 10:05:53;;;;;;;13.75;9.35;;;10.80;99.90;;;;;;4990407;28;20034;-73
2023/03/20 10:08:22;;;;;;;10.57;8.43;;;10.70;99.90;;;;;;4978670;28;20396;-72
2023/03/20 10:10:48;;;;;;;12.63;8.90;;;10.60;99.90;;;;;;4993592;28;20058;-73
2023/03/20 10:13:19;;;;;;;13.35;9.25;;;10.50;99.90;;;;;;4993643;28;20529;-73
2023/03/20 10:15:53;;;;;;;13.45;9.02;;;10.40;99.90;;;;;;4992293;28;20513;-72
2023/03/20 10:18:25;;;;;;;11.70;9.10;;;10.30;99.90;;;;;;4993469;28;20130;-73
2023/03/20 10:21:17;;;;;;;13.93;9.38;;;10.40;99.90;;;;;;4993624;28;20053;-72
2023/03/20 10:23:57;;;;;;;13.23;8.25;;;10.50;99.90;;;;;;4993224;28;20046;-73
2023/03/20 10:26:23;;;;;;;12.55;8.57;;;10.50;99.90;;;;;;4989030;28;20089;-73
2023/03/20 10:29:00;;;;;;;14.25;9.98;;;10.50;99.90;;;;;;4992720;28;20764;-73
2023/03/20 10:31:35;;;;;;;16.85;10.27;;;10.50;99.90;;;;;;4993072;28;20452;-72
2023/03/20 10:34:16;;;;;;;12.50;9.48;;;10.30;99.90;;;;;;4993417;28;20046;-73
2023/03/20 10:37:13;;;;;;;13.57;10.13;;;10.30;99.90;;;;;;4993319;28;20452;-73
2023/03/20 10:40:03;;;;;;;11.38;9.40;;;10.30;99.90;;;;;;4991971;28;20515;-73
2023/03/20 10:42:34;;;;;;;12.98;9.68;;;10.30;99.90;;;;;;4992783;28;20096;-73
2023/03/20 10:45:13;;;;;;;12.25;9.40;;;10.40;99.90;;;;;;4977157;28;20109;-72
2023/03/20 10:47:42;;;;;;;13.07;9.68;;;10.30;99.90;;;;;;4992949;28;20089;-72
2023/03/20 10:50:16;;;;;;;15.25;9.70;;;10.30;99.90;;;;;;4989752;28;20125;-73
2023/03/20 10:52:47;;;;;;;16.08;10.18;;;10.30;99.90;;;;;;4984656;28;20035;-73
2023/03/20 10:55:19;;;;;;;12.10;8.90;;;10.20;99.90;;;;;;4992717;28;20038;-72
2023/03/20 10:57:57;;;;;;;14.27;10.05;;;10.10;99.90;;;;;;4992704;28;20161;-73
2023/03/20 11:00:24;;;;;;;14.80;9.38;;;10.00;99.90;;;;;;4992809;28;20054;-73
2023/03/20 11:02:50;;;;;;;16.00;9.32;;;9.90;99.90;;;;;;4992362;28;20054;-73
2023/03/20 11:05:32;;;;;;;10.88;8.00;;;9.90;99.90;;;;;;4985349;28;20050;-73
2023/03/20 11:08:10;;;;;;;11.25;7.93;;;10.00;99.90;;;;;;4985144;28;20514;-73
2023/03/20 11:10:37;;;;;;;11.88;8.02;;;9.90;99.90;;;;;;4992525;28;20583;-73
2023/03/20 11:13:14;;;;;;;12.40;7.60;;;10.00;99.90;;;;;;4976405;28;20086;-73
2023/03/20 11:15:40;;;;;;;8.98;6.35;;;10.00;99.90;;;;;;4992663;28;20479;-73
2023/03/20 11:18:09;;;;;;;11.10;5.90;;;10.10;99.90;;;;;;4987982;28;20054;-72
2023/03/20 11:20:49;;;;;;;11.85;6.40;;;10.10;99.90;;;;;;5005984;28;20042;-73
2023/03/20 11:23:31;;;;;;;9.43;6.32;;;10.20;99.90;;;;;;4992336;28;20046;-73
2023/03/20 11:26:06;;;;;;;10.13;5.70;;;10.30;99.90;;;;;;5032459;22;20046;-75
2023/03/20 11:28:38;;;;;;;11.00;5.55;;;10.30;99.90;;;;;;4992114;28;20132;-75
2023/03/20 11:31:10;;;;;;;9.32;5.53;;;10.20;99.90;;;;;;4997731;28;20509;-75
2023/03/20 11:33:39;;;;;;;7.30;4.80;;;10.30;99.90;;;;;;5014937;28;20042;-76
2023/03/20 11:36:20;;;;;;;11.70;5.25;;;10.30;99.90;;;;;;4995772;28;20046;-76
2023/03/20 11:38:50;;;;;;;7.97;5.55;;;10.30;99.90;;;;;;4979940;28;20488;-76
2023/03/20 11:41:18;;;;;;;6.20;4.72;;;10.20;99.90;;;;;;4978807;28;20496;-75
2023/03/20 11:43:44;;;;;;;8.85;4.75;;;10.20;99.90;;;;;;4979268;28;20033;-75
2023/03/20 11:46:12;;;;;;;8.00;4.97;;;10.30;99.90;;;;;;5008535;28;20042;-75
2023/03/20 11:48:44;;;;;;;8.82;5.50;;;10.30;99.90;;;;;;5002492;28;20096;-75
2023/03/20 11:51:15;;;;;;;7.60;4.80;;;10.10;99.90;;;;;;4978911;28;20576;-76
2023/03/20 11:53:59;;;;;;;7.35;5.10;;;10.10;99.90;;;;;;4993821;28;20044;-77
2023/03/20 11:56:31;;;;;;;7.45;5.20;;;10.10;99.90;;;;;;4989059;28;20119;-75
2023/03/20 11:59:09;;;;;;;9.80;5.83;;;10.20;99.90;;;;;;4982990;28;20089;-75
2023/03/20 12:01:45;;;;;;;7.85;4.53;;;10.20;99.90;;;;;;4982567;28;20656;-76
2023/03/20 12:04:33;;;;;;;8.75;5.35;;;10.30;99.90;;;;;;5000533;28;20042;-76
2023/03/20 12:07:21;;;;;;;7.53;4.65;;;10.20;99.90;;;;;;4975017;28;20037;-76
2023/03/20 12:09:57;;;;;;;9.20;5.18;;;10.20;99.90;;;;;;4989928;28;20045;-77
2023/03/20 12:12:34;;;;;;;8.30;4.65;;;10.20;99.90;;;;;;5014355;28;20076;-76
2023/03/20 12:15:12;;;;;;;9.90;5.22;;;10.20;99.90;;;;;;4998234;28;20052;-76
2023/03/20 12:18:15;;;;;;;8.18;5.82;;;10.20;99.90;;;;;;4997930;28;20417;-76
2023/03/20 12:20:47;;;;;;;7.93;5.05;;;10.20;99.90;;;;;;4994663;28;20407;-75
2023/03/20 12:23:20;;;;;;;7.13;4.50;;;10.20;99.90;;;;;;4992346;28;20491;-75
2023/03/20 12:26:12;;;;;;;8.70;4.75;;;10.00;99.90;;;;;;4997492;28;20037;-78
2023/03/20 12:28:45;;;;;;;8.45;4.93;;;9.90;99.90;;;;;;4992457;28;20057;-75
2023/03/20 12:31:32;;;;;;;7.30;4.53;;;9.70;99.90;;;;;;4980527;28;20038;-76
2023/03/20 12:34:04;;;;;;;8.65;5.53;;;9.60;99.90;;;;;;4995144;28;20384;-76
2023/03/20 12:36:37;;;;;;;10.93;6.35;;;9.40;99.90;;;;;;4978256;28;20038;-77
2023/03/20 12:39:10;;;;;;;10.35;6.25;;;9.40;99.90;;;;;;4980380;28;20490;-76
2023/03/20 12:42:13;;;;;;;8.52;5.40;;;9.40;99.90;;;;;;4989364;28;20523;-76
2023/03/20 12:45:13;;;;;;;8.90;5.75;;;9.30;99.90;;;;;;4994422;28;20054;-76
2023/03/20 12:47:56;;;;;;;11.38;6.82;;;9.20;99.90;;;;;;4984660;28;20408;-75
2023/03/20 12:50:31;;;;;;;9.57;6.33;;;9.10;99.90;;;;;;4958830;28;20413;-75
2023/03/20 12:52:59;;;;;;;9.55;7.15;;;9.10;99.90;;;;;;4974668;28;20053;-78
2023/03/20 12:55:34;;;;;;;10.38;6.80;;;9.10;99.90;;;;;;4989480;28;20038;-76
2023/03/20 12:58:35;;;;;;;11.13;6.80;;;9.10;99.90;;;;;;4984582;28;20047;-75
2023/03/20 13:01:20;;;;;;;10.48;7.18;;;9.10;99.90;;;;;;4991013;28;20038;-79
2023/03/20 13:04:22;;;;;;;11.40;6.50;;;9.00;99.90;;;;;;5005216;28;20051;-75
2023/03/20 13:06:57;;;;;;;12.18;7.50;;;9.10;99.90;;;;;;4997321;28;20132;-76
2023/03/20 13:09:25;;;;;;;11.13;6.60;;;9.00;99.90;;;;;;5002590;28;20046;-77
2023/03/20 13:12:19;;;;;;;9.35;6.80;;;8.90;99.90;;;;;;4988014;28;20106;-76
2023/03/20 13:15:06;;;;;;;9.77;7.07;;;8.90;99.90;;;;;;4991953;28;20487;-76
2023/03/20 13:17:35;;;;;;;11.60;8.02;;;8.80;99.90;;;;;;4990207;28;20042;-76
2023/03/20 13:20:29;;;;;;;13.77;8.38;;;8.80;99.90;;;;;;4983670;28;20052;-76
2023/03/20 13:23:20;;;;;;;9.32;7.53;;;8.80;99.90;;;;;;4996809;28;20037;-76
2023/03/20 13:26:16;;;;;;;12.35;8.32;;;8.70;99.90;;;;;;4999525;28;20052;-78
2023/03/20 13:28:52;;;;;;;11.13;7.57;;;8.70;99.90;;;;;;4986367;28;20042;-79
2023/03/20 13:32:08;;;;;;;13.68;8.93;;;8.70;99.90;;;;;;4970247;28;20046;-76
2023/03/20 13:34:55;;;;;;;12.15;8.57;;;8.60;99.90;;;;;;4981677;28;20141;-76
2023/03/20 13:37:35;;;;;;;11.20;9.02;;;8.70;99.90;;;;;;5001967;28;20455;-76
2023/03/20 13:40:21;;;;;;;13.18;10.02;;;8.70;99.90;;;;;;4987917;28;20042;-76
2023/03/20 13:43:09;;;;;;;12.85;11.35;;;8.60;99.90;;;;;;4996961;28;20609;-76
2023/03/20 13:45:41;;;;;;;14.70;11.05;;;8.60;99.90;;;;;;5002574;28;20033;-76
2023/03/20 13:48:33;;;;;;;14.52;11.73;;;8.70;99.90;;;;;;4993974;28;20042;-76
2023/03/20 13:51:10;;;;;;;14.18;11.02;;;8.70;99.90;;;;;;5000651;28;20042;-77
2023/03/20 13:54:09;;;;;;;15.18;9.88;;;8.70;99.90;;;;;;4990808;28;20038;-76
2023/03/20 13:56:54;;;;;;;13.18;11.55;;;8.70;99.90;;;;;;4990474;28;20124;-75
2023/03/20 13:59:34;;;;;;;14.95;11.73;;;8.70;99.90;;;;;;5012027;28;20042;-76